createdAt,value
2022-10-10T00:00:27.261Z,3.38
2022-10-10T00:01:31.394Z,2.64
2022-10-10T00:02:34.482Z,2.11
2022-10-10T00:03:50.670Z,2.21
2022-10-10T00:04:54.059Z,2.39
2022-10-10T00:05:57.544Z,2.01
2022-10-10T00:07:04.009Z,2.17
2022-10-10T00:08:07.391Z,2.39
2022-10-10T00:09:10.709Z,2.28
2022-10-10T00:10:14.166Z,2.24
2022-10-10T00:12:45.424Z,2.33
2022-10-10T00:13:49.136Z,2.35
2022-10-10T00:14:52.807Z,2.41
2022-10-10T00:15:57.246Z,2.34
2022-10-10T00:17:00.600Z,2.36
2022-10-10T00:18:04.084Z,2.02
2022-10-10T00:19:07.583Z,2.03
2022-10-10T00:20:14.238Z,2.39
2022-10-10T00:21:17.819Z,2.46
2022-10-10T00:22:22.643Z,2.21
2022-10-10T00:23:31.172Z,1.85
2022-10-10T00:24:35.071Z,2.17
2022-10-10T00:25:38.653Z,2.07
2022-10-10T00:26:49.723Z,2.03
2022-10-10T00:27:53.815Z,2.31
2022-10-10T00:29:03.138Z,2.19
2022-10-10T00:30:06.429Z,2.22
2022-10-10T00:31:10.231Z,2.28
2022-10-10T00:32:13.818Z,2.32
2022-10-10T00:33:24.547Z,2.28
2022-10-10T00:34:28.166Z,1.96
2022-10-10T00:35:31.338Z,2.20
2022-10-10T00:36:34.152Z,2.18
2022-10-10T00:37:44.702Z,2.16
2022-10-10T00:38:48.482Z,2.32
2022-10-10T00:41:12.244Z,2.07
2022-10-10T00:42:24.491Z,2.07
2022-10-10T00:43:27.615Z,1.94
2022-10-10T00:44:31.976Z,2.01
2022-10-10T00:45:36.971Z,2.21
2022-10-10T00:46:44.843Z,2.04
2022-10-10T00:47:48.565Z,2.17
2022-10-10T00:48:51.406Z,2.28
2022-10-10T00:49:54.954Z,2.01
2022-10-10T00:50:59.100Z,2.13
2022-10-10T00:52:02.702Z,2.25
2022-10-10T00:53:07.208Z,2.33
2022-10-10T00:54:11.010Z,2.59
2022-10-10T00:55:15.210Z,2.35
2022-10-10T00:56:20.058Z,2.05
2022-10-10T00:57:23.994Z,2.19
2022-10-10T00:59:48.517Z,2.09
2022-10-10T01:00:52.051Z,2.41
2022-10-10T01:01:55.498Z,2.09
2022-10-10T01:02:59.503Z,2.17
2022-10-10T01:04:03.293Z,2.37
2022-10-10T01:05:06.779Z,2.40
2022-10-10T01:06:10.384Z,2.56
2022-10-10T01:08:33.846Z,2.22
2022-10-10T01:09:37.133Z,2.34
2022-10-10T01:10:40.206Z,2.53
2022-10-10T01:11:43.799Z,2.62
2022-10-10T01:12:47.957Z,2.22
2022-10-10T01:13:52.520Z,2.08
2022-10-10T01:14:57.335Z,2.59
2022-10-10T01:16:14.579Z,2.40
2022-10-10T01:17:29.341Z,2.25
2022-10-10T01:18:35.743Z,2.02
2022-10-10T01:19:40.377Z,2.17
2022-10-10T01:20:45.808Z,2.24
2022-10-10T01:21:49.113Z,2.20
2022-10-10T01:22:54.842Z,2.23
2022-10-10T01:23:58.235Z,2.41
2022-10-10T01:25:02.323Z,2.24
2022-10-10T01:26:06.134Z,2.14
2022-10-10T01:27:09.506Z,1.94
2022-10-10T01:28:12.737Z,2.04
2022-10-10T01:29:15.974Z,2.57
2022-10-10T01:30:23.254Z,2.38
2022-10-10T01:31:26.643Z,2.48
2022-10-10T01:32:29.711Z,2.54
2022-10-10T01:33:33.244Z,2.48
2022-10-10T01:35:57.508Z,1.89
2022-10-10T01:37:01.085Z,1.92
2022-10-10T01:38:04.568Z,2.03
2022-10-10T01:39:07.959Z,2.20
2022-10-10T01:40:12.585Z,2.16
2022-10-10T01:41:17.084Z,2.41
2022-10-10T01:42:20.076Z,2.01
2022-10-10T01:43:26.016Z,2.19
2022-10-10T01:44:30.119Z,2.69
2022-10-10T01:45:33.842Z,2.58
2022-10-10T01:46:37.703Z,2.60
2022-10-10T01:47:52.992Z,2.65
2022-10-10T01:48:56.777Z,2.49
2022-10-10T01:49:59.689Z,2.07
2022-10-10T01:51:03.122Z,1.95
2022-10-10T01:52:06.616Z,2.37
2022-10-10T01:53:09.809Z,2.67
2022-10-10T01:54:13.918Z,2.47
2022-10-10T01:55:17.919Z,2.62
2022-10-10T01:56:21.801Z,2.73
2022-10-10T01:58:45.793Z,2.00
2022-10-10T02:01:18.756Z,1.97
2022-10-10T02:02:24.103Z,2.21
2022-10-10T02:03:34.909Z,2.25
2022-10-10T02:05:59.750Z,2.12
2022-10-10T02:07:06.223Z,2.37
2022-10-10T02:08:10.632Z,2.09
2022-10-10T02:09:14.120Z,1.93
2022-10-10T02:10:17.430Z,1.93
2022-10-10T02:11:20.787Z,1.92
2022-10-10T02:12:24.382Z,1.97
2022-10-10T02:13:28.589Z,2.24
2022-10-10T02:14:32.186Z,1.94
2022-10-10T02:15:35.458Z,1.97
2022-10-10T02:16:39.259Z,1.82
2022-10-10T02:17:43.873Z,1.68
2022-10-10T02:18:47.159Z,1.82
2022-10-10T02:19:50.335Z,1.74
2022-10-10T02:20:53.414Z,1.88
2022-10-10T02:21:56.814Z,2.22
2022-10-10T02:23:00.104Z,1.94
2022-10-10T02:24:03.572Z,2.22
2022-10-10T02:25:09.314Z,2.58
2022-10-10T02:26:12.814Z,2.41
2022-10-10T02:27:23.430Z,2.34
2022-10-10T02:28:32.095Z,2.51
2022-10-10T02:29:35.463Z,2.37
2022-10-10T02:30:41.576Z,2.26
2022-10-10T02:31:46.133Z,2.09
2022-10-10T02:32:50.150Z,1.84
2022-10-10T02:33:54.222Z,1.97
2022-10-10T02:34:58.125Z,1.97
2022-10-10T02:36:10.023Z,1.91
2022-10-10T02:37:13.406Z,2.20
2022-10-10T02:38:17.125Z,1.94
2022-10-10T02:39:21.308Z,2.20
2022-10-10T02:40:24.489Z,1.96
2022-10-10T02:41:29.619Z,1.75
2022-10-10T02:42:33.818Z,2.11
2022-10-10T02:43:37.505Z,1.63
2022-10-10T02:44:41.308Z,1.86
2022-10-10T02:45:45.402Z,2.28
2022-10-10T02:46:48.897Z,2.06
2022-10-10T02:47:53.428Z,2.01
2022-10-10T02:48:56.902Z,1.85
2022-10-10T02:50:26.299Z,1.88
2022-10-10T02:51:37.078Z,1.77
2022-10-10T02:52:41.572Z,1.99
2022-10-10T02:53:45.674Z,1.90
2022-10-10T02:54:48.555Z,1.96
2022-10-10T02:55:54.780Z,1.98
2022-10-10T02:58:20.103Z,2.07
2022-10-10T02:59:23.595Z,2.15
2022-10-10T03:00:27.247Z,1.80
2022-10-10T03:01:31.231Z,2.00
2022-10-10T03:02:34.989Z,1.95
2022-10-10T03:03:38.371Z,1.85
2022-10-10T03:04:50.626Z,1.87
2022-10-10T03:05:54.478Z,2.04
2022-10-10T03:06:57.857Z,2.22
2022-10-10T03:08:01.689Z,1.97
2022-10-10T03:09:05.232Z,2.19
2022-10-10T03:10:08.733Z,2.51
2022-10-10T03:11:12.632Z,2.56
2022-10-10T03:12:16.008Z,2.19
2022-10-10T03:13:19.407Z,2.11
2022-10-10T03:14:23.399Z,2.26
2022-10-10T03:15:26.890Z,2.45
2022-10-10T03:16:30.587Z,1.88
2022-10-10T03:17:35.980Z,2.10
2022-10-10T03:18:39.202Z,2.03
2022-10-10T03:19:42.589Z,2.00
2022-10-10T03:22:14.688Z,1.99
2022-10-10T03:23:19.066Z,2.12
2022-10-10T03:24:22.353Z,1.94
2022-10-10T03:25:25.942Z,2.02
2022-10-10T03:26:33.659Z,2.05
2022-10-10T03:28:59.646Z,2.15
2022-10-10T03:30:03.041Z,2.21
2022-10-10T03:31:06.980Z,1.75
2022-10-10T03:32:11.303Z,2.08
2022-10-10T03:33:15.242Z,1.82
2022-10-10T03:34:18.534Z,2.36
2022-10-10T03:35:23.345Z,1.92
2022-10-10T03:36:31.550Z,1.88
2022-10-10T03:37:35.138Z,2.15
2022-10-10T03:38:39.142Z,2.03
2022-10-10T03:39:43.550Z,1.91
2022-10-10T03:40:52.180Z,1.99
2022-10-10T03:41:55.508Z,2.14
2022-10-10T03:42:59.043Z,2.05
2022-10-10T03:44:06.523Z,2.34
2022-10-10T03:45:10.344Z,2.21
2022-10-10T03:46:16.274Z,2.18
2022-10-10T03:47:18.740Z,2.00
2022-10-10T03:48:22.622Z,1.89
2022-10-10T03:49:26.127Z,1.79
2022-10-10T03:50:30.229Z,2.40
2022-10-10T03:51:41.671Z,2.16
2022-10-10T03:52:46.311Z,2.04
2022-10-10T03:53:49.796Z,1.87
2022-10-10T03:54:53.404Z,1.90
2022-10-10T03:55:56.580Z,2.02
2022-10-10T03:56:59.961Z,2.27
2022-10-10T03:58:03.848Z,2.07
2022-10-10T03:59:07.035Z,1.90
2022-10-10T04:00:10.747Z,1.71
2022-10-10T04:01:14.404Z,1.94
2022-10-10T04:02:17.507Z,2.08
2022-10-10T04:03:21.301Z,1.97
2022-10-10T04:04:24.591Z,1.67
2022-10-10T04:05:28.185Z,1.68
2022-10-10T04:06:31.563Z,1.76
2022-10-10T04:07:35.367Z,2.07
2022-10-10T04:08:42.571Z,1.73
2022-10-10T04:09:48.622Z,1.79
2022-10-10T04:10:52.289Z,1.79
2022-10-10T04:11:56.068Z,1.78
2022-10-10T04:13:02.935Z,1.80
2022-10-10T04:14:07.761Z,1.76
2022-10-10T04:15:12.402Z,1.70
2022-10-10T04:16:15.561Z,1.76
2022-10-10T04:17:19.000Z,1.92
2022-10-10T04:19:45.546Z,2.02
2022-10-10T04:20:48.558Z,1.62
2022-10-10T04:21:51.438Z,1.50
2022-10-10T04:22:56.572Z,1.82
2022-10-10T04:24:01.498Z,1.64
2022-10-10T04:25:10.002Z,1.56
2022-10-10T04:26:18.911Z,1.67
2022-10-10T04:27:22.439Z,2.17
2022-10-10T04:28:27.174Z,1.92
2022-10-10T04:29:32.240Z,1.91
2022-10-10T04:30:35.229Z,2.20
2022-10-10T04:33:01.974Z,1.68
2022-10-10T04:34:06.082Z,1.85
2022-10-10T04:35:27.172Z,1.64
2022-10-10T04:36:35.601Z,1.64
2022-10-10T04:38:59.151Z,1.74
2022-10-10T04:41:26.475Z,1.96
2022-10-10T04:42:30.032Z,2.10
2022-10-10T04:43:33.162Z,2.02
2022-10-10T04:45:57.762Z,1.98
2022-10-10T04:47:01.050Z,2.07
2022-10-10T04:49:35.084Z,1.92
2022-10-10T04:50:38.237Z,1.88
2022-10-10T04:51:41.540Z,1.83
2022-10-10T04:52:44.396Z,1.44
2022-10-10T04:53:55.457Z,1.56
2022-10-10T04:54:59.055Z,1.80
2022-10-10T04:56:02.651Z,1.95
2022-10-10T04:57:14.035Z,1.89
2022-10-10T04:58:18.734Z,2.07
2022-10-10T04:59:25.606Z,2.17
2022-10-10T05:00:39.341Z,1.79
2022-10-10T05:01:43.329Z,1.68
2022-10-10T05:04:18.476Z,1.75
2022-10-10T05:06:42.348Z,1.82
2022-10-10T05:07:45.498Z,1.57
2022-10-10T05:09:06.226Z,1.72
2022-10-10T05:10:09.715Z,1.74
2022-10-10T05:11:24.776Z,1.65
2022-10-10T05:12:28.885Z,1.69
2022-10-10T05:13:32.475Z,1.79
2022-10-10T05:14:36.571Z,1.49
2022-10-10T05:15:42.922Z,1.91
2022-10-10T05:16:46.110Z,1.74
2022-10-10T05:17:49.694Z,1.98
2022-10-10T05:18:53.602Z,2.07
2022-10-10T05:19:57.303Z,1.71
2022-10-10T05:21:03.598Z,1.67
2022-10-10T05:22:05.504Z,1.74
2022-10-10T05:23:08.786Z,1.89
2022-10-10T05:24:12.080Z,1.82
2022-10-10T05:25:15.662Z,1.97
2022-10-10T05:26:19.764Z,1.81
2022-10-10T05:27:22.972Z,1.82
2022-10-10T05:28:26.389Z,1.78
2022-10-10T05:29:30.430Z,1.64
2022-10-10T05:30:33.835Z,1.75
2022-10-10T05:31:37.417Z,1.49
2022-10-10T05:32:40.387Z,1.98
2022-10-10T05:33:46.057Z,1.88
2022-10-10T05:34:50.231Z,1.86
2022-10-10T05:35:53.415Z,1.87
2022-10-10T05:36:57.007Z,1.68
2022-10-10T05:37:59.988Z,1.61
2022-10-10T05:39:03.890Z,1.61
2022-10-10T05:40:06.867Z,1.57
2022-10-10T05:41:10.351Z,1.68
2022-10-10T05:42:13.846Z,1.75
2022-10-10T05:43:20.013Z,1.76
2022-10-10T05:44:23.482Z,1.75
2022-10-10T05:45:27.480Z,2.02
2022-10-10T05:46:30.993Z,2.00
2022-10-10T05:47:34.156Z,1.85
2022-10-10T05:48:37.233Z,2.00
2022-10-10T05:49:40.617Z,2.32
2022-10-10T05:50:44.418Z,1.99
2022-10-10T05:51:47.502Z,2.18
2022-10-10T05:52:53.258Z,1.63
2022-10-10T05:53:56.707Z,1.79
2022-10-10T05:55:00.119Z,2.08
2022-10-10T05:56:03.473Z,1.69
2022-10-10T05:57:13.944Z,1.74
2022-10-10T05:58:14.262Z,1.61
2022-10-10T05:59:17.353Z,1.83
2022-10-10T06:00:20.942Z,1.75
2022-10-10T06:01:24.434Z,1.86
2022-10-10T06:02:27.632Z,2.06
2022-10-10T06:03:30.890Z,1.78
2022-10-10T06:04:34.069Z,1.96
2022-10-10T06:05:37.869Z,1.83
2022-10-10T06:06:41.174Z,2.02
2022-10-10T06:08:04.693Z,2.21
2022-10-10T06:08:49.089Z,1.91
2022-10-10T06:09:52.641Z,2.08
2022-10-10T06:11:02.169Z,2.10
2022-10-10T06:12:05.266Z,2.19
2022-10-10T06:13:09.153Z,2.22
2022-10-10T06:14:12.697Z,1.98
2022-10-10T06:15:16.152Z,2.05
2022-10-10T06:16:21.565Z,2.09
2022-10-10T06:17:25.028Z,1.93
2022-10-10T06:18:28.865Z,2.00
2022-10-10T06:19:33.371Z,1.93
2022-10-10T06:20:36.650Z,1.93
2022-10-10T06:21:40.563Z,2.16
2022-10-10T06:22:44.455Z,1.84
2022-10-10T06:23:47.427Z,1.92
2022-10-10T06:24:53.110Z,1.57
2022-10-10T06:25:56.551Z,2.07
2022-10-10T06:27:00.258Z,1.92
2022-10-10T06:28:05.292Z,1.73
2022-10-10T06:29:10.093Z,1.79
2022-10-10T06:30:13.272Z,1.95
2022-10-10T06:31:16.777Z,2.16
2022-10-10T06:32:20.714Z,2.04
2022-10-10T06:33:24.374Z,2.17
2022-10-10T06:34:28.039Z,2.18
2022-10-10T06:35:31.543Z,2.17
2022-10-10T06:36:34.736Z,2.18
2022-10-10T06:37:38.103Z,2.12
2022-10-10T06:38:41.815Z,2.13
2022-10-10T06:39:44.799Z,2.11
2022-10-10T06:40:47.753Z,2.02
2022-10-10T06:41:51.058Z,1.87
2022-10-10T06:42:54.952Z,2.06
2022-10-10T06:43:59.378Z,2.06
2022-10-10T06:45:03.561Z,2.01
2022-10-10T06:46:07.372Z,1.88
2022-10-10T06:47:10.941Z,2.02
2022-10-10T06:48:14.342Z,1.71
2022-10-10T06:49:17.607Z,1.71
2022-10-10T06:50:20.910Z,1.84
2022-10-10T06:51:24.800Z,1.75
2022-10-10T06:52:34.643Z,1.93
2022-10-10T06:53:57.592Z,2.04
2022-10-10T06:55:04.451Z,2.16
2022-10-10T06:56:07.850Z,2.04
2022-10-10T06:58:38.259Z,2.04
2022-10-10T07:01:04.676Z,1.93
2022-10-10T07:03:31.048Z,1.95
2022-10-10T07:04:34.826Z,2.09
2022-10-10T07:06:58.801Z,2.29
2022-10-10T07:08:02.391Z,2.03
2022-10-10T07:09:06.823Z,2.18
2022-10-10T07:10:16.335Z,2.04
2022-10-10T07:11:19.455Z,1.84
2022-10-10T07:12:33.715Z,1.85
2022-10-10T07:13:39.898Z,2.35
2022-10-10T07:14:43.987Z,2.43
2022-10-10T07:16:00.885Z,2.26
2022-10-10T07:17:03.682Z,2.16
2022-10-10T07:18:06.974Z,2.31
2022-10-10T07:19:09.889Z,2.17
2022-10-10T07:20:23.675Z,1.95
2022-10-10T07:21:28.988Z,1.89
2022-10-10T07:22:33.628Z,2.04
2022-10-10T07:23:37.674Z,2.10
2022-10-10T07:24:45.533Z,2.11
2022-10-10T07:25:51.431Z,2.32
2022-10-10T07:27:02.352Z,2.20
2022-10-10T07:27:59.980Z,2.28
2022-10-10T07:29:09.928Z,2.21
2022-10-10T07:30:12.906Z,2.46
2022-10-10T07:31:16.534Z,2.64
2022-10-10T07:32:19.937Z,2.63
2022-10-10T07:33:25.621Z,2.07
2022-10-10T07:34:29.028Z,1.96
2022-10-10T07:35:41.256Z,2.28
2022-10-10T07:36:45.420Z,2.13
2022-10-10T07:39:10.188Z,2.27
2022-10-10T07:40:15.126Z,2.50
2022-10-10T07:41:18.711Z,2.29
2022-10-10T07:42:22.106Z,1.95
2022-10-10T07:43:27.832Z,2.12
2022-10-10T07:44:34.571Z,2.09
2022-10-10T07:45:48.123Z,2.09
2022-10-10T07:46:51.620Z,2.25
2022-10-10T07:47:58.295Z,2.30
2022-10-10T07:49:01.768Z,2.32
2022-10-10T07:50:08.192Z,2.42
2022-10-10T07:51:12.124Z,2.08
2022-10-10T07:52:15.813Z,2.15
2022-10-10T07:53:19.921Z,2.05
2022-10-10T07:54:23.620Z,2.18
2022-10-10T07:55:27.010Z,2.07
2022-10-10T07:56:31.312Z,1.88
2022-10-10T07:57:35.132Z,1.97
2022-10-10T07:58:38.907Z,2.15
2022-10-10T07:59:43.223Z,1.85
2022-10-10T08:00:46.912Z,2.09
2022-10-10T08:01:50.617Z,2.06
2022-10-10T08:02:54.097Z,2.08
2022-10-10T08:03:57.782Z,2.34
2022-10-10T08:05:01.078Z,2.19
2022-10-10T08:06:04.349Z,2.26
2022-10-10T08:07:13.279Z,2.37
2022-10-10T08:08:16.657Z,2.12
2022-10-10T08:09:20.370Z,2.11
2022-10-10T08:10:23.815Z,2.08
2022-10-10T08:11:27.426Z,2.28
2022-10-10T08:12:30.733Z,2.49
2022-10-10T08:13:35.236Z,2.42
2022-10-10T08:14:38.706Z,2.66
2022-10-10T08:15:42.826Z,2.14
2022-10-10T08:16:46.225Z,2.24
2022-10-10T08:17:55.982Z,2.38
2022-10-10T08:18:59.831Z,2.47
2022-10-10T08:20:04.208Z,2.46
2022-10-10T08:21:07.575Z,2.70
2022-10-10T08:22:11.229Z,2.58
2022-10-10T08:23:15.031Z,2.45
2022-10-10T08:24:19.331Z,2.02
2022-10-10T08:25:22.495Z,2.04
2022-10-10T08:26:29.489Z,2.03
2022-10-10T08:27:32.467Z,2.05
2022-10-10T08:28:36.367Z,2.13
2022-10-10T08:29:44.926Z,1.99
2022-10-10T08:30:47.937Z,2.29
2022-10-10T08:31:51.654Z,2.28
2022-10-10T08:32:54.888Z,2.27
2022-10-10T08:34:00.353Z,2.28
2022-10-10T08:35:03.342Z,2.27
2022-10-10T08:37:31.830Z,2.34
2022-10-10T08:38:32.674Z,2.60
2022-10-10T08:39:37.056Z,2.48
2022-10-10T08:40:49.973Z,2.20
2022-10-10T08:41:53.031Z,1.92
2022-10-10T08:42:56.974Z,2.30
2022-10-10T08:44:01.458Z,2.24
2022-10-10T08:45:05.351Z,2.42
2022-10-10T08:46:08.651Z,2.20
2022-10-10T08:47:12.245Z,2.18
2022-10-10T08:48:16.251Z,2.39
2022-10-10T08:49:27.264Z,2.15
2022-10-10T08:50:32.845Z,2.31
2022-10-10T08:51:36.132Z,2.37
2022-10-10T08:52:40.014Z,2.68
2022-10-10T08:53:47.205Z,2.56
2022-10-10T08:54:52.834Z,2.35
2022-10-10T08:55:55.317Z,2.58
2022-10-10T08:56:59.003Z,2.51
2022-10-10T08:58:02.180Z,2.62
2022-10-10T08:59:05.670Z,2.38
2022-10-10T09:00:09.360Z,2.56
2022-10-10T09:01:13.938Z,2.44
2022-10-10T09:02:23.353Z,2.54
2022-10-10T09:03:22.292Z,2.82
2022-10-10T09:04:32.008Z,3.17
2022-10-10T09:05:35.714Z,2.77
2022-10-10T09:06:39.018Z,2.42
2022-10-10T09:07:49.760Z,2.45
2022-10-10T09:08:53.050Z,2.56
2022-10-10T09:09:59.602Z,2.59
2022-10-10T09:11:03.310Z,2.72
2022-10-10T09:12:07.191Z,2.56
2022-10-10T09:13:13.126Z,2.52
2022-10-10T09:14:16.439Z,2.42
2022-10-10T09:15:20.751Z,2.15
2022-10-10T09:16:23.938Z,2.16
2022-10-10T09:17:27.595Z,1.91
2022-10-10T09:18:31.303Z,2.51
2022-10-10T09:19:40.224Z,2.25
2022-10-10T09:22:06.216Z,2.20
2022-10-10T09:23:22.221Z,2.19
2022-10-10T09:24:29.646Z,2.27
2022-10-10T09:25:33.013Z,2.14
2022-10-10T09:26:36.552Z,2.35
2022-10-10T09:29:01.382Z,1.88
2022-10-10T09:30:04.681Z,2.01
2022-10-10T09:31:08.368Z,2.50
2022-10-10T09:32:13.153Z,2.14
2022-10-10T09:33:16.464Z,2.09
2022-10-10T09:34:20.365Z,2.24
2022-10-10T09:35:23.959Z,2.49
2022-10-10T09:36:30.555Z,2.21
2022-10-10T09:37:46.809Z,2.10
2022-10-10T09:38:41.628Z,2.29
2022-10-10T09:41:06.179Z,2.05
2022-10-10T09:44:50.258Z,2.32
2022-10-10T09:45:55.163Z,2.14
2022-10-10T09:46:58.541Z,2.25
2022-10-10T09:48:04.513Z,2.11
2022-10-10T09:49:10.653Z,2.24
2022-10-10T09:50:18.471Z,2.27
2022-10-10T09:51:33.813Z,2.18
2022-10-10T09:52:36.976Z,2.41
2022-10-10T09:53:40.276Z,2.35
2022-10-10T09:54:43.143Z,2.33
2022-10-10T09:55:50.592Z,2.42
2022-10-10T09:56:54.315Z,2.20
2022-10-10T09:57:57.713Z,2.19
2022-10-10T09:59:01.291Z,2.27
2022-10-10T10:00:07.895Z,2.18
2022-10-10T10:01:11.205Z,2.71
2022-10-10T10:02:14.732Z,2.67
2022-10-10T10:04:38.294Z,2.14
2022-10-10T10:05:41.210Z,1.99
2022-10-10T10:06:44.971Z,2.20
2022-10-10T10:07:47.635Z,2.19
2022-10-10T10:08:58.969Z,2.28
2022-10-10T10:10:13.013Z,2.21
2022-10-10T10:11:15.812Z,2.14
2022-10-10T10:12:23.107Z,2.34
2022-10-10T10:14:48.345Z,2.00
2022-10-10T10:15:51.581Z,1.97
2022-10-10T10:16:54.673Z,2.41
2022-10-10T10:17:58.867Z,2.28
2022-10-10T10:19:07.489Z,2.27
2022-10-10T10:20:13.438Z,2.26
2022-10-10T10:21:20.293Z,2.34
2022-10-10T10:22:31.103Z,2.04
2022-10-10T10:23:34.955Z,2.04
2022-10-10T10:24:38.462Z,2.16
2022-10-10T10:25:42.044Z,2.38
2022-10-10T10:26:45.231Z,2.32
2022-10-10T10:27:49.214Z,1.93
2022-10-10T10:28:53.776Z,2.42
2022-10-10T10:30:06.940Z,2.29
2022-10-10T10:31:11.540Z,2.25
2022-10-10T10:32:19.174Z,2.46
2022-10-10T10:33:25.505Z,2.47
2022-10-10T10:35:57.212Z,2.04
2022-10-10T10:37:03.153Z,2.13
2022-10-10T10:38:07.436Z,2.12
2022-10-10T10:57:32.224Z,2.55
2022-10-10T10:59:04.959Z,2.36
2022-10-10T11:00:16.923Z,2.21
2022-10-10T11:01:21.017Z,2.20
2022-10-10T11:01:59.502Z,2.19
2022-10-10T11:03:05.967Z,2.19
2022-10-10T11:05:16.183Z,2.09
2022-10-10T11:05:19.175Z,1.81
2022-10-10T11:06:09.869Z,2.03
2022-10-10T11:07:19.546Z,2.16
2022-10-10T11:08:20.808Z,2.25
2022-10-10T11:09:48.491Z,2.09
2022-10-10T11:10:29.574Z,2.07
2022-10-10T11:11:33.164Z,2.33
2022-10-10T11:14:05.853Z,2.00
2022-10-10T11:15:10.464Z,1.85
2022-10-10T11:16:30.271Z,1.89
2022-10-10T11:17:20.103Z,2.03
2022-10-10T11:18:23.506Z,1.82
2022-10-10T11:19:27.308Z,2.05
2022-10-10T11:20:30.317Z,2.14
2022-10-10T11:21:33.441Z,2.16
2022-10-10T11:22:36.724Z,2.17
2022-10-10T11:23:40.042Z,1.67
2022-10-10T11:24:51.060Z,1.99
2022-10-10T11:25:54.618Z,2.34
2022-10-10T11:26:58.917Z,2.46
2022-10-10T11:28:14.941Z,2.27
2022-10-10T11:29:22.567Z,2.21
2022-10-10T11:30:28.068Z,2.19
2022-10-10T11:31:37.205Z,2.26
2022-10-10T11:32:40.701Z,2.21
2022-10-10T11:33:44.309Z,2.10
2022-10-10T11:34:54.754Z,2.18
2022-10-10T11:35:58.451Z,2.04
2022-10-10T11:37:01.921Z,2.07
2022-10-10T11:38:05.452Z,1.89
2022-10-10T11:40:37.512Z,2.15
2022-10-10T11:41:40.553Z,2.23
2022-10-10T11:42:47.191Z,2.12
2022-10-10T11:43:50.573Z,2.37
2022-10-10T11:44:54.103Z,2.15
2022-10-10T11:46:09.185Z,2.11
2022-10-10T11:47:13.787Z,2.28
2022-10-10T11:48:17.461Z,1.99
2022-10-10T11:49:20.326Z,1.94
2022-10-10T11:50:29.558Z,1.89
2022-10-10T11:51:32.844Z,1.95
2022-10-10T11:52:38.082Z,2.42
2022-10-10T11:53:41.357Z,2.27
2022-10-10T11:54:44.732Z,2.15
2022-10-10T11:55:59.046Z,2.38
2022-10-10T11:57:03.497Z,2.23
2022-10-10T11:58:06.590Z,2.30
2022-10-10T11:59:19.792Z,2.52
2022-10-10T12:00:36.442Z,2.52
2022-10-10T12:01:47.270Z,2.52
2022-10-10T12:02:50.648Z,2.32
2022-10-10T12:03:54.340Z,2.02
2022-10-10T12:04:57.329Z,2.18
2022-10-10T12:06:00.529Z,2.42
2022-10-10T12:07:04.074Z,2.42
2022-10-10T12:08:08.386Z,2.60
2022-10-10T12:09:11.881Z,2.29
2022-10-10T12:10:16.686Z,2.31
2022-10-10T12:11:33.660Z,2.32
2022-10-10T12:12:36.848Z,2.29
2022-10-10T12:13:44.557Z,2.10
2022-10-10T12:14:50.432Z,2.54
2022-10-10T12:15:53.673Z,3.00
2022-10-10T12:16:57.723Z,2.59
2022-10-10T12:18:01.303Z,2.39
2022-10-10T12:19:05.442Z,2.14
2022-10-10T12:20:09.090Z,2.27
2022-10-10T12:21:15.353Z,2.20
2022-10-10T12:22:19.253Z,2.05
2022-10-10T12:23:22.764Z,2.13
2022-10-10T12:24:26.125Z,1.89
2022-10-10T12:25:29.211Z,1.99
2022-10-10T12:26:32.185Z,1.79
2022-10-10T12:27:35.354Z,1.94
2022-10-10T12:28:38.623Z,1.96
2022-10-10T12:29:42.602Z,2.12
2022-10-10T12:30:45.955Z,2.13
2022-10-10T12:31:49.213Z,1.91
2022-10-10T12:32:53.131Z,2.02
2022-10-10T12:33:57.009Z,2.18
2022-10-10T12:35:00.391Z,2.25
2022-10-10T12:36:04.452Z,2.28
2022-10-10T12:37:07.722Z,2.17
2022-10-10T12:38:10.470Z,2.24
2022-10-10T12:39:13.483Z,2.57
2022-10-10T12:40:16.299Z,2.03
2022-10-10T12:41:19.934Z,1.86
2022-10-10T12:42:22.870Z,1.95
2022-10-10T12:43:25.784Z,2.06
2022-10-10T12:44:29.032Z,2.05
2022-10-10T12:45:32.311Z,2.31
2022-10-10T12:46:35.392Z,2.25
2022-10-10T12:48:03.410Z,2.12
2022-10-10T12:48:42.986Z,1.79
2022-10-10T12:49:46.386Z,1.85
2022-10-10T12:50:50.372Z,1.93
2022-10-10T12:51:53.453Z,2.02
2022-10-10T12:52:56.533Z,1.94
2022-10-10T12:54:00.137Z,2.10
2022-10-10T12:55:06.732Z,2.24
2022-10-10T12:56:08.853Z,2.12
2022-10-10T12:57:12.133Z,2.35
2022-10-10T12:58:26.214Z,2.05
2022-10-10T12:59:19.736Z,2.09
2022-10-10T13:00:23.024Z,2.04
2022-10-10T13:01:26.389Z,1.78
2022-10-10T13:02:29.480Z,2.33
2022-10-10T13:03:32.343Z,2.35
2022-10-10T13:04:38.513Z,2.26
2022-10-10T13:05:41.273Z,2.08
2022-10-10T13:06:44.076Z,2.27
2022-10-10T13:07:48.152Z,2.42
2022-10-10T13:08:51.222Z,1.99
2022-10-10T13:09:54.618Z,1.95
2022-10-10T13:10:57.504Z,2.20
2022-10-10T13:12:00.663Z,2.28
2022-10-10T13:13:03.908Z,2.45
2022-10-10T13:14:07.034Z,2.55
2022-10-10T13:15:10.005Z,2.32
2022-10-10T13:16:13.208Z,2.13
2022-10-10T13:17:15.966Z,2.41
2022-10-10T13:18:19.551Z,2.54
2022-10-10T13:19:22.939Z,2.56
2022-10-10T13:20:26.425Z,2.36
2022-10-10T13:21:29.287Z,2.57
2022-10-10T13:22:32.703Z,1.99
2022-10-10T13:23:35.774Z,2.11
2022-10-10T13:24:39.047Z,2.40
2022-10-10T13:25:42.231Z,2.46
2022-10-10T13:26:45.214Z,2.24
2022-10-10T13:27:48.497Z,1.98
2022-10-10T13:28:51.945Z,2.08
2022-10-10T13:29:58.085Z,2.21
2022-10-10T13:31:01.755Z,2.01
2022-10-10T13:32:05.322Z,2.01
2022-10-10T13:33:08.298Z,1.85
2022-10-10T13:34:11.782Z,1.88
2022-10-10T13:35:14.767Z,1.89
2022-10-10T13:36:17.647Z,2.18
2022-10-10T13:37:20.729Z,2.02
2022-10-10T13:38:23.692Z,2.01
2022-10-10T13:39:28.413Z,1.92
2022-10-10T13:40:31.388Z,2.04
2022-10-10T13:41:34.584Z,2.12
2022-10-10T13:42:37.864Z,2.30
2022-10-10T13:43:40.728Z,2.25
2022-10-10T13:44:44.612Z,1.99
2022-10-10T13:45:47.405Z,1.91
2022-10-10T13:46:50.581Z,2.08
2022-10-10T13:47:53.375Z,2.35
2022-10-10T13:48:56.331Z,2.10
2022-10-10T13:49:59.725Z,2.18
2022-10-10T13:51:03.517Z,2.09
2022-10-10T13:52:06.795Z,1.98
2022-10-10T13:53:09.985Z,2.16
2022-10-10T13:54:13.055Z,2.25
2022-10-10T13:55:16.134Z,2.04
2022-10-10T13:56:19.009Z,2.13
2022-10-10T13:57:22.188Z,2.12
2022-10-10T13:58:25.066Z,2.26
2022-10-10T13:59:28.041Z,1.99
2022-10-10T14:00:30.695Z,2.12
2022-10-10T14:01:34.411Z,1.85
2022-10-10T14:02:37.489Z,2.21
2022-10-10T14:03:40.372Z,2.12
2022-10-10T14:04:43.442Z,2.09
2022-10-10T14:05:46.782Z,2.11
2022-10-10T14:06:49.500Z,2.43
2022-10-10T14:07:52.781Z,2.29
2022-10-10T14:08:55.662Z,2.26
2022-10-10T14:09:58.647Z,2.48
2022-10-10T14:11:02.282Z,2.46
2022-10-10T14:12:05.229Z,2.16
2022-10-10T14:13:09.514Z,2.37
2022-10-10T14:14:12.181Z,2.63
2022-10-10T14:15:15.364Z,2.34
2022-10-10T14:16:18.652Z,2.55
2022-10-10T14:17:21.573Z,2.87
2022-10-10T14:18:24.919Z,2.38
2022-10-10T14:19:27.892Z,1.93
2022-10-10T14:20:31.161Z,2.36
2022-10-10T14:21:34.184Z,2.62
2022-10-10T14:22:37.318Z,2.52
2022-10-10T14:23:40.406Z,2.42
2022-10-10T14:24:43.601Z,2.47
2022-10-10T14:25:46.678Z,2.18
2022-10-10T14:26:49.463Z,2.59
2022-10-10T14:27:52.204Z,2.68
2022-10-10T14:28:55.655Z,2.20
2022-10-10T14:29:58.402Z,2.19
2022-10-10T14:31:01.832Z,2.18
2022-10-10T14:32:05.244Z,2.36
2022-10-10T14:33:09.044Z,2.08
2022-10-10T14:34:12.112Z,2.17
2022-10-10T14:35:15.194Z,2.49
2022-10-10T14:36:18.297Z,2.15
2022-10-10T14:37:21.663Z,2.38
2022-10-10T14:38:24.761Z,1.99
2022-10-10T14:39:28.233Z,2.32
2022-10-10T14:40:31.315Z,2.31
2022-10-10T14:41:34.401Z,2.15
2022-10-10T14:42:37.367Z,2.39
2022-10-10T14:43:45.547Z,2.54
2022-10-10T14:44:45.888Z,2.43
2022-10-10T14:45:49.189Z,2.44
2022-10-10T14:46:52.250Z,2.13
2022-10-10T14:47:55.328Z,2.37
2022-10-10T14:48:58.100Z,2.18
2022-10-10T14:50:01.494Z,2.21
2022-10-10T14:51:34.360Z,2.39
2022-10-10T14:52:09.809Z,2.18
2022-10-10T14:53:13.181Z,2.15
2022-10-10T14:54:16.165Z,2.42
2022-10-10T14:55:18.934Z,2.50
2022-10-10T14:56:23.042Z,2.02
2022-10-10T14:57:26.321Z,2.40
2022-10-10T14:58:29.497Z,2.61
2022-10-10T14:59:49.719Z,2.35
2022-10-10T15:00:37.414Z,2.43
2022-10-10T15:01:40.383Z,2.53
2022-10-10T15:02:45.843Z,2.49
2022-10-10T15:03:48.286Z,2.73
2022-10-10T15:04:51.252Z,2.60
2022-10-10T15:05:54.861Z,2.44
2022-10-10T15:07:12.265Z,2.37
2022-10-10T15:08:03.061Z,2.53
2022-10-10T15:09:18.059Z,2.52
2022-10-10T15:11:15.883Z,2.64
2022-10-10T15:12:19.255Z,2.35
2022-10-10T15:13:22.345Z,2.49
2022-10-10T15:14:25.113Z,2.55
2022-10-10T15:15:28.192Z,2.86
2022-10-10T15:16:30.972Z,2.85
2022-10-10T15:17:34.148Z,2.58
2022-10-10T15:18:53.743Z,2.58
2022-10-10T15:19:42.554Z,2.64
2022-10-10T15:20:45.432Z,2.82
2022-10-10T15:21:48.611Z,2.87
2022-10-10T15:22:51.909Z,2.55
2022-10-10T15:23:55.093Z,2.53
2022-10-10T15:24:58.271Z,2.69
2022-10-10T15:26:01.299Z,2.73
2022-10-10T15:27:04.632Z,2.43